Time;durP1;ratioP1;P1;durP2;ratioP2;P2;SDS_P1;SDS_P2;PMS_P1;PMS_P2;Temp;Humidity;BMP_temperature;BMP_pressure;BME280_temperature;BME280_humidity;BME280_pressure;Samples;Min_cycle;Max_cycle;Signal;HPM_P1;HPM_P2
2023/08/29 00:06:32;;;;;;;5.65;3.00;;;;;;;15.26;92.44;101305.59;20560747;28;20053;-62
2023/08/29 00:16:53;;;;;;;5.00;2.80;;;;;;;15.25;92.67;101295.22;20551735;28;20047;-62
2023/08/29 00:27:15;;;;;;;4.68;2.50;;;;;;;15.18;92.08;101285.97;20560994;28;20042;-62
2023/08/29 00:37:36;;;;;;;2.95;2.60;;;;;;;15.02;93.74;101278.78;20554758;28;20035;-62
2023/08/29 00:48:00;;;;;;;3.78;2.47;;;;;;;15.05;92.60;101277.81;20545732;28;20141;-62
2023/08/29 00:58:22;;;;;;;3.05;2.35;;;;;;;14.89;93.35;101261.09;20554389;28;20042;-62
2023/08/29 01:08:45;;;;;;;5.82;2.88;;;;;;;14.75;93.46;101261.66;20554236;28;20082;-62
2023/08/29 01:19:14;;;;;;;3.25;2.92;;;;;;;14.55;94.45;101248.59;20559837;28;21440;-62
2023/08/29 01:29:36;;;;;;;3.05;2.70;;;;;;;14.60;93.47;101258.81;20548310;28;20043;-62
2023/08/29 01:39:58;;;;;;;3.13;2.83;;;;;;;14.57;93.80;101254.59;20557707;28;20047;-62
2023/08/29 01:50:20;;;;;;;3.47;2.60;;;;;;;14.55;93.83;101266.81;20566926;28;20036;-62
2023/08/29 02:00:42;;;;;;;3.20;2.90;;;;;;;14.36;93.71;101273.63;20557727;28;20082;-62
2023/08/29 02:11:04;;;;;;;3.17;2.83;;;;;;;14.39;94.36;101314.34;20548260;28;20053;-62
2023/08/29 02:21:26;;;;;;;2.97;2.42;;;;;;;14.44;94.34;101334.09;20538634;28;20573;-62
2023/08/29 02:31:48;;;;;;;3.60;2.65;;;;;;;14.36;93.65;101345.69;20549548;28;20051;-62
2023/08/29 02:42:10;;;;;;;;;;;;;;;14.25;95.06;101313.97;20570168;28;20046;-62
2023/08/29 02:52:32;;;;;;;3.60;2.78;;;;;;;14.19;94.45;101304.66;20562708;28;20017;-62
2023/08/29 03:02:53;;;;;;;8.77;3.08;;;;;;;14.17;94.60;101301.25;20545956;28;20046;-63
2023/08/29 03:13:18;;;;;;;3.67;3.05;;;;;;;14.13;94.22;101299.66;20560148;28;20047;-62
2023/08/29 03:23:39;;;;;;;4.90;3.83;;;;;;;14.08;94.44;101288.56;20576394;28;20051;-62
2023/08/29 03:34:02;;;;;;;;;;;;;;;13.97;96.11;101301.13;20542658;28;20035;-62
2023/08/29 03:44:23;;;;;;;5.07;4.28;;;;;;;13.88;95.28;101272.84;20559124;28;19929;-62
2023/08/29 03:54:45;;;;;;;5.60;4.95;;;;;;;13.84;95.97;101274.69;20562741;28;20680;-63
2023/08/29 04:05:14;;;;;;;;;;;;;;;13.72;96.24;101282.94;20554362;28;20039;-62
2023/08/29 04:15:37;;;;;;;9.23;7.25;;;;;;;13.72;96.81;101282.09;20548790;28;19922;-62
2023/08/29 04:26:03;;;;;;;10.88;8.30;;;;;;;13.70;96.40;101276.94;20557798;28;20043;-62
2023/08/29 04:36:25;;;;;;;10.80;8.05;;;;;;;13.63;96.64;101261.59;20560890;28;20551;-62
2023/08/29 04:46:47;;;;;;;12.93;8.77;;;;;;;13.51;97.17;101254.25;20545219;28;20134;-62
2023/08/29 04:57:08;;;;;;;12.02;9.30;;;;;;;13.56;98.05;101234.13;20551101;28;20494;-62
2023/08/29 05:07:30;;;;;;;;;;;;;;;13.51;97.74;101229.09;20552574;28;20431;-62
2023/08/29 05:17:51;;;;;;;8.73;7.47;;;;;;;13.42;97.61;101236.38;20551966;28;20455;-62
2023/08/29 05:28:13;;;;;;;;;;;;;;;13.49;97.68;101225.72;20547207;28;20042;-62
2023/08/29 05:38:34;;;;;;;12.00;8.67;;;;;;;13.52;97.53;101224.72;20551951;28;20531;-62
2023/08/29 05:48:57;;;;;;;;;;;;;;;13.56;97.83;101216.78;20561655;28;20047;-62
2023/08/29 05:59:19;;;;;;;11.98;7.75;;;;;;;13.78;98.97;101227.25;20557008;28;19929;-61
2023/08/29 06:09:40;;;;;;;11.38;8.32;;;;;;;13.87;97.72;101230.38;20584011;28;20089;-62
2023/08/29 06:20:03;;;;;;;9.00;7.88;;;;;;;14.04;98.11;101228.00;20568260;28;20039;-62
2023/08/29 06:30:25;;;;;;;11.80;7.22;;;;;;;14.26;97.62;101222.81;20577599;28;20055;-62
2023/08/29 06:40:53;;;;;;;;;;;;;;;14.27;96.72;101234.94;20571218;28;20077;-62
2023/08/29 06:51:14;;;;;;;9.90;7.03;;;;;;;14.43;96.75;101233.41;20575434;28;20015;-62
2023/08/29 07:01:37;;;;;;;;;;;;;;;14.61;97.56;101209.28;20565874;28;20096;-61
2023/08/29 07:11:58;;;;;;;8.65;6.30;;;;;;;14.83;96.24;101210.06;20563215;28;21106;-62
2023/08/29 07:22:20;;;;;;;6.50;5.60;;;;;;;15.10;95.45;101198.50;20575716;28;20074;-62
2023/08/29 07:32:45;;;;;;;6.60;4.25;;;;;;;15.36;94.30;101201.75;20555130;28;20057;-63
2023/08/29 07:43:08;;;;;;;7.55;3.55;;;;;;;15.57;92.38;101213.88;20558637;28;20047;-62
2023/08/29 07:53:30;;;;;;;4.30;3.10;;;;;;;15.72;92.33;101213.19;20556672;28;20047;-63
2023/08/29 08:03:52;;;;;;;4.90;2.95;;;;;;;16.01;91.29;101225.75;20560930;28;20137;-63
2023/08/29 08:14:13;;;;;;;6.43;2.78;;;;;;;16.30;91.37;101234.88;20552789;28;20153;-62
2023/08/29 08:24:35;;;;;;;4.65;1.80;;;;;;;16.62;89.88;101235.06;20561384;28;20048;-63
2023/08/29 08:34:57;;;;;;;1.60;1.50;;;;;;;16.93;88.50;101230.03;20567889;28;20786;-63
2023/08/29 08:45:21;;;;;;;2.42;1.40;;;;;;;17.25;87.56;101227.56;20534707;28;20050;-63
2023/08/29 08:55:42;;;;;;;2.47;1.15;;;;;;;17.52;86.44;101226.16;20544097;28;20046;-63
2023/08/29 09:06:05;;;;;;;2.17;1.10;;;;;;;17.69;86.19;101226.13;20541413;28;20049;-63
2023/08/29 09:16:37;;;;;;;1.23;1.00;;;;;;;17.86;87.59;101218.19;20560580;28;20425;-63
2023/08/29 09:27:00;;;;;;;1.70;1.40;;;;;;;18.03;84.94;101239.09;20540619;28;20045;-63
2023/08/29 09:37:21;;;;;;;1.17;0.82;;;;;;;18.12;81.94;101237.75;20553732;28;20046;-63
2023/08/29 09:47:43;;;;;;;1.45;0.90;;;;;;;18.29;84.26;101230.66;20563482;28;20146;-63
2023/08/29 09:58:06;;;;;;;1.15;0.75;;;;;;;18.44;81.05;101237.69;20563309;28;20464;-63
2023/08/29 10:08:59;;;;;;;1.88;1.13;;;;;;;18.77;78.41;101214.78;20573336;28;20133;-63
2023/08/29 10:19:21;;;;;;;2.63;1.05;;;;;;;18.94;79.35;101211.19;20575949;28;20049;-62
2023/08/29 10:29:43;;;;;;;2.75;0.82;;;;;;;18.90;79.40;101200.03;20566307;28;20049;-63
2023/08/29 10:40:11;;;;;;;2.58;0.90;;;;;;;18.90;79.80;101184.31;20578599;28;20683;-63
2023/08/29 10:50:36;;;;;;;2.15;1.10;;;;;;;18.95;76.53;101194.53;20503787;23;20110;-63
2023/08/29 11:00:58;;;;;;;3.70;1.17;;;;;;;18.82;79.12;101176.06;20430398;28;20532;-63
2023/08/29 11:11:22;;;;;;;1.00;0.98;;;;;;;18.82;79.91;101167.34;20416638;29;20050;-63
2023/08/29 11:21:46;;;;;;;2.00;0.90;;;;;;;18.80;78.52;101159.56;20420022;29;20050;-60
2023/08/29 11:32:08;;;;;;;1.38;0.70;;;;;;;18.76;79.42;101159.81;20421040;28;20039;-60
2023/08/29 11:42:29;;;;;;;3.70;0.90;;;;;;;18.74;80.24;101157.28;20425166;28;20051;-63
2023/08/29 11:53:20;;;;;;;2.15;1.13;;;;;;;18.89;79.84;101151.16;20428792;28;20054;-61
2023/08/29 12:03:42;;;;;;;1.35;0.70;;;;;;;19.12;78.14;101151.56;20419161;28;20059;-63
2023/08/29 12:14:07;;;;;;;1.13;0.63;;;;;;;19.36;78.90;101144.84;20405687;29;20044;-63
2023/08/29 12:24:29;;;;;;;0.65;0.60;;;;;;;19.36;78.22;101134.34;20416807;28;20080;-61
2023/08/29 12:34:50;;;;;;;2.45;0.77;;;;;;;19.34;78.78;101137.06;20407014;29;20042;-61
2023/08/29 12:45:12;;;;;;;2.15;0.70;;;;;;;19.38;79.53;101128.06;20416957;28;20051;-61
2023/08/29 12:55:33;;;;;;;2.42;0.60;;;;;;;19.46;77.32;101117.09;20420797;28;20556;-61
2023/08/29 13:05:55;;;;;;;1.33;0.73;;;;;;;19.61;76.43;101118.78;20414100;28;20053;-61
2023/08/29 13:16:17;;;;;;;0.60;0.60;;;;;;;19.66;76.61;101114.91;20400317;29;20616;-61
2023/08/29 13:26:39;;;;;;;0.98;0.50;;;;;;;19.78;75.90;101089.66;20420946;28;20506;-62
2023/08/29 13:37:01;;;;;;;0.95;0.50;;;;;;;19.91;73.63;101085.28;20402611;29;20135;-62
2023/08/29 13:47:23;;;;;;;1.67;0.52;;;;;;;20.00;73.61;101071.56;20402316;28;20701;-62
2023/08/29 13:57:45;;;;;;;0.80;0.60;;;;;;;20.02;73.75;101064.41;20413379;29;20772;-61
2023/08/29 14:08:06;;;;;;;0.80;0.60;;;;;;;20.17;66.63;101063.47;20403698;29;20585;-61
2023/08/29 14:18:29;;;;;;;0.65;0.47;;;;;;;20.50;71.19;101057.72;20408232;28;20043;-61
2023/08/29 14:28:51;;;;;;;1.08;0.40;;;;;;;20.69;70.28;101045.84;20434393;28;20054;-62
2023/08/29 14:39:13;;;;;;;1.08;0.70;;;;;;;20.87;65.28;101046.41;20426562;28;20051;-61
2023/08/29 14:49:35;;;;;;;0.73;0.60;;;;;;;20.73;69.01;101054.41;20413532;29;20047;-61
2023/08/29 14:59:59;;;;;;;3.40;0.93;;;;;;;20.46;70.11;101057.09;20423437;28;20075;-61
2023/08/29 15:10:21;;;;;;;2.13;0.85;;;;;;;20.77;70.53;101061.13;20416249;29;20035;-61
2023/08/29 15:20:43;;;;;;;0.80;0.75;;;;;;;20.76;70.16;101054.19;20415158;29;20398;-61
2023/08/29 15:31:05;;;;;;;0.65;0.65;;;;;;;20.78;69.47;101047.88;20415852;29;20035;-61
2023/08/29 15:41:26;;;;;;;2.45;0.88;;;;;;;20.64;67.93;101050.59;20412616;29;20032;-61
2023/08/29 15:51:48;;;;;;;0.77;0.60;;;;;;;20.56;69.34;101041.56;20418622;29;20039;-61
2023/08/29 16:02:10;;;;;;;0.88;0.60;;;;;;;20.48;71.65;101039.44;20410295;29;20127;-61
2023/08/29 16:12:32;;;;;;;1.55;0.90;;;;;;;20.25;73.14;101052.44;20409289;28;20043;-61
2023/08/29 16:22:54;;;;;;;1.42;1.10;;;;;;;20.06;73.93;101047.53;20420803;28;20789;-61
2023/08/29 16:33:16;;;;;;;3.45;1.13;;;;;;;19.88;74.45;101051.34;20409591;29;20051;-61
2023/08/29 16:43:37;;;;;;;3.90;1.80;;;;;;;19.81;75.01;101057.94;20411405;29;20051;-61
2023/08/29 16:53:59;;;;;;;1.98;1.70;;;;;;;19.72;75.34;101055.91;20413323;28;20046;-61
2023/08/29 17:04:22;;;;;;;3.42;1.60;;;;;;;19.65;75.62;101065.13;20423728;28;20497;-60
2023/08/29 17:14:44;;;;;;;3.28;1.52;;;;;;;19.61;76.09;101059.19;20407109;28;20144;-60
2023/08/29 17:25:06;;;;;;;2.85;1.60;;;;;;;19.57;76.50;101049.00;20413462;29;20067;-61
2023/08/29 17:35:28;;;;;;;4.90;2.03;;;;;;;19.54;76.17;101036.09;20391110;28;20400;-60
2023/08/29 17:45:55;;;;;;;2.63;1.70;;;;;;;19.45;77.89;101034.88;20404359;29;20075;-61
2023/08/29 17:56:17;;;;;;;2.38;1.60;;;;;;;19.31;80.08;101026.13;20425390;28;20040;-61
2023/08/29 18:06:38;;;;;;;4.43;1.90;;;;;;;19.22;80.92;101029.34;20421265;29;20597;-61
2023/08/29 18:17:00;;;;;;;4.75;2.65;;;;;;;19.18;80.17;101027.84;20417987;29;20487;-61
2023/08/29 18:27:23;;;;;;;2.90;2.00;;;;;;;19.15;81.17;101020.19;20413802;29;20059;-61
2023/08/29 18:37:45;;;;;;;2.35;1.48;;;;;;;19.14;80.45;101023.75;20418304;28;20054;-61
2023/08/29 18:48:07;;;;;;;4.18;1.90;;;;;;;19.09;80.22;101018.78;20412410;29;20130;-62
2023/08/29 18:58:31;;;;;;;5.53;2.00;;;;;;;18.99;79.82;101021.13;20420628;28;20664;-61
2023/08/29 19:08:59;;;;;;;4.00;2.40;;;;;;;18.92;80.77;101024.22;20432849;28;20703;-61
2023/08/29 19:19:21;;;;;;;2.60;1.45;;;;;;;18.93;81.27;101036.41;20426337;28;20172;-61
2023/08/29 19:29:42;;;;;;;2.65;1.98;;;;;;;18.84;83.08;101019.44;20429710;28;20047;-61
2023/08/29 19:40:05;;;;;;;5.25;2.20;;;;;;;18.72;83.41;101014.94;20408950;28;20062;-62
2023/08/29 19:50:26;;;;;;;4.15;2.30;;;;;;;18.58;84.35;101020.19;20417582;29;20056;-61
2023/08/29 20:00:49;;;;;;;5.57;3.20;;;;;;;18.36;85.26;101009.25;20415201;29;20155;-61
2023/08/29 20:11:11;;;;;;;3.63;2.80;;;;;;;18.25;86.35;101010.81;20409845;28;20066;-61
2023/08/29 20:21:33;;;;;;;4.00;2.95;;;;;;;18.15;86.98;101015.75;20412668;29;20051;-61
2023/08/29 20:31:54;;;;;;;2.92;2.53;;;;;;;18.02;87.15;101006.91;20409250;29;20058;-61
2023/08/29 20:42:16;;;;;;;3.05;2.20;;;;;;;17.86;87.55;101011.34;20406962;29;20043;-61
2023/08/29 20:52:38;;;;;;;2.95;2.40;;;;;;;17.73;88.53;101012.97;20419698;28;20047;-61
2023/08/29 21:03:00;;;;;;;5.25;2.17;;;;;;;17.62;88.75;101010.94;20412156;29;20238;-61
2023/08/29 21:13:22;;;;;;;5.43;2.58;;;;;;;17.51;89.39;101009.84;20421339;28;20059;-60
2023/08/29 21:23:44;;;;;;;3.60;2.60;;;;;;;17.38;90.11;101004.44;20403791;29;20051;-61
2023/08/29 21:34:06;;;;;;;3.17;2.80;;;;;;;17.26;90.25;100992.03;20407823;29;20036;-61
2023/08/29 21:44:28;;;;;;;4.07;2.90;;;;;;;17.08;90.78;100999.09;20415740;28;20035;-61
2023/08/29 21:54:49;;;;;;;4.05;2.88;;;;;;;17.00;91.04;100987.38;20419744;29;20138;-60
2023/08/29 22:05:11;;;;;;;4.53;3.63;;;;;;;16.90;91.50;100968.72;20403493;29;20040;-61
2023/08/29 22:15:33;;;;;;;4.93;3.90;;;;;;;16.75;91.49;100972.16;20413916;28;20043;-61
2023/08/29 22:25:55;;;;;;;5.93;3.80;;;;;;;16.67;92.57;100958.66;20407093;29;20044;-61
2023/08/29 22:36:16;;;;;;;4.78;3.88;;;;;;;16.65;92.87;100942.22;20401043;29;20055;-62
2023/08/29 22:46:38;;;;;;;4.90;4.40;;;;;;;16.71;92.61;100935.81;20412232;29;20043;-61
2023/08/29 22:57:00;;;;;;;5.90;4.40;;;;;;;16.63;91.72;100923.16;20419228;28;21130;-61
2023/08/29 23:07:21;;;;;;;8.63;5.50;;;;;;;16.54;91.99;100907.09;20417287;28;20058;-61
2023/08/29 23:17:43;;;;;;;8.35;4.90;;;;;;;16.57;91.87;100910.41;20413550;28;20039;-61
2023/08/29 23:28:05;;;;;;;5.30;4.80;;;;;;;16.61;91.71;100888.41;20418331;28;20126;-61
2023/08/29 23:38:28;;;;;;;6.55;4.85;;;;;;;16.58;92.26;100878.13;20425576;28;20047;-61
2023/08/29 23:48:50;;;;;;;5.40;4.90;;;;;;;16.55;91.21;100873.09;20425502;28;20610;-62
2023/08/29 23:59:12;;;;;;;5.65;4.65;;;;;;;16.56;91.11;100864.31;20406951;28;20058;-62
